createdAt,value
2019-04-01T00:01:01.869Z,21.47
2019-04-01T00:03:32.889Z,21.00
2019-04-01T00:06:03.787Z,19.63
2019-04-01T00:08:34.723Z,19.43
2019-04-01T00:11:05.625Z,17.53
2019-04-01T00:13:37.414Z,15.83
2019-04-01T00:16:08.331Z,15.17
2019-04-01T00:18:40.862Z,15.73
2019-04-01T00:21:11.761Z,15.83
2019-04-01T00:23:42.789Z,16.87
2019-04-01T00:26:13.682Z,17.37
2019-04-01T00:28:48.759Z,18.60
2019-04-01T00:31:19.762Z,20.83
2019-04-01T00:33:50.704Z,26.80
2019-04-01T00:36:21.604Z,24.97
2019-04-01T00:38:52.539Z,23.37
2019-04-01T00:41:23.527Z,23.80
2019-04-01T00:43:56.253Z,21.50
2019-04-01T00:46:27.845Z,18.83
2019-04-01T00:48:58.777Z,16.47
2019-04-01T00:51:29.673Z,15.70
2019-04-01T00:54:00.642Z,15.47
2019-04-01T00:56:31.539Z,14.00
2019-04-01T00:59:02.493Z,14.17
2019-04-01T01:01:33.407Z,13.00
2019-04-01T01:04:04.363Z,14.50
2019-04-01T01:06:35.272Z,13.40
2019-04-01T01:09:06.619Z,13.70
2019-04-01T01:11:37.524Z,13.63
2019-04-01T01:14:08.469Z,13.87
2019-04-01T01:16:39.377Z,15.13
2019-04-01T01:19:10.309Z,14.53
2019-04-01T01:21:41.208Z,13.67
2019-04-01T01:24:12.149Z,14.00
2019-04-01T01:26:43.056Z,13.90
2019-04-01T01:29:15.623Z,13.27
2019-04-01T01:31:46.596Z,15.77
2019-04-01T01:34:17.599Z,14.67
2019-04-01T01:36:48.509Z,13.83
2019-04-01T01:39:19.430Z,14.53
2019-04-01T01:41:50.344Z,12.73
2019-04-01T01:44:21.335Z,13.47
2019-04-01T01:46:52.228Z,15.53
2019-04-01T01:49:23.177Z,14.27
2019-04-01T01:51:54.081Z,15.13
2019-04-01T01:54:25.007Z,15.27
2019-04-01T01:56:55.909Z,14.80
2019-04-01T01:59:26.806Z,14.67
2019-04-01T02:01:58.531Z,13.10
2019-04-01T02:04:31.215Z,13.33
2019-04-01T02:07:02.253Z,14.50
2019-04-01T02:09:33.203Z,14.97
2019-04-01T02:12:04.161Z,14.47
2019-04-01T02:14:35.167Z,14.17
2019-04-01T02:17:06.311Z,15.23
2019-04-01T02:19:38.138Z,14.73
2019-04-01T02:22:09.086Z,14.93
2019-04-01T02:24:39.992Z,16.67
2019-04-01T02:27:10.925Z,14.57
2019-04-01T02:29:41.825Z,16.07
2019-04-01T02:32:12.774Z,15.97
2019-04-01T02:34:43.681Z,16.80
2019-04-01T02:37:14.618Z,17.57
2019-04-01T02:39:45.528Z,17.10
2019-04-01T02:42:16.571Z,15.70
2019-04-01T02:44:47.488Z,15.83
2019-04-01T02:47:18.552Z,15.43
2019-04-01T02:49:49.463Z,16.83
2019-04-01T02:52:20.402Z,15.57
2019-04-01T02:54:52.624Z,14.33
2019-04-01T02:57:23.612Z,14.07
2019-04-01T02:59:54.520Z,14.33
2019-04-01T03:02:26.395Z,14.03
2019-04-01T03:04:57.299Z,14.83
2019-04-01T03:07:28.231Z,13.80
2019-04-01T03:09:59.144Z,15.07
2019-04-01T03:12:30.147Z,15.23
2019-04-01T03:15:01.121Z,16.50
2019-04-01T03:17:44.065Z,19.03
2019-04-01T03:20:08.407Z,20.37
2019-04-01T03:22:39.349Z,15.20
2019-04-01T03:25:10.246Z,14.80
2019-04-01T03:27:41.195Z,14.63
2019-04-01T03:30:12.153Z,16.07
2019-04-01T03:32:45.146Z,15.50
2019-04-01T03:35:15.949Z,13.13
2019-04-01T03:37:47.046Z,16.97
2019-04-01T03:40:18.026Z,15.53
2019-04-01T03:42:48.960Z,14.80
2019-04-01T03:45:19.876Z,13.20
2019-04-01T03:47:54.162Z,13.83
2019-04-01T03:50:25.083Z,13.93
2019-04-01T03:52:56.042Z,12.90
2019-04-01T03:55:26.991Z,11.43
2019-04-01T03:57:58.009Z,10.60
2019-04-01T04:00:28.923Z,12.07
2019-04-01T04:03:00.743Z,12.17
2019-04-01T04:05:31.656Z,11.67
2019-04-01T04:08:09.996Z,13.37
2019-04-01T04:10:35.192Z,17.60
2019-04-01T04:13:08.669Z,14.43
2019-04-01T04:15:39.602Z,12.90
2019-04-01T04:18:11.387Z,11.53
2019-04-01T04:20:43.122Z,10.13
2019-04-01T04:23:14.073Z,10.97
2019-04-01T04:25:45.187Z,15.10
2019-04-01T04:28:16.239Z,17.37
2019-04-01T04:30:47.457Z,20.53
2019-04-01T04:33:19.273Z,25.63
2019-04-01T04:35:50.223Z,23.57
2019-04-01T04:38:21.232Z,20.43
2019-04-01T04:40:52.216Z,16.50
2019-04-01T04:43:23.235Z,16.67
2019-04-01T04:45:54.145Z,15.97
2019-04-01T04:48:25.909Z,15.87
2019-04-01T04:50:56.889Z,17.73
2019-04-01T04:53:27.819Z,20.03
2019-04-01T04:55:58.735Z,21.10
2019-04-01T04:58:29.669Z,19.93
2019-04-01T05:01:00.567Z,21.83
2019-04-01T05:03:32.452Z,57.33
2019-04-01T05:06:03.363Z,75.40
2019-04-01T05:08:34.369Z,59.23
2019-04-01T05:11:05.353Z,41.50
2019-04-01T05:13:38.046Z,27.73
2019-04-01T05:16:09.157Z,26.23
2019-04-01T05:18:40.122Z,31.37
2019-04-01T05:21:12.240Z,36.10
2019-04-01T05:23:43.942Z,36.27
2019-04-01T05:26:15.918Z,30.33
2019-04-01T05:28:50.112Z,28.90
2019-04-01T05:31:23.057Z,27.60
2019-04-01T05:33:56.329Z,24.80
2019-04-01T05:36:27.738Z,21.33
2019-04-01T05:38:58.732Z,20.30
2019-04-01T05:41:29.646Z,20.47
2019-04-01T05:44:02.409Z,23.97
2019-04-01T05:46:33.629Z,53.13
2019-04-01T05:49:05.374Z,43.47
2019-04-01T05:51:36.991Z,43.77
2019-04-01T05:54:08.714Z,38.07
2019-04-01T05:56:39.614Z,30.37
2019-04-01T05:59:10.547Z,25.17
2019-04-01T06:01:43.088Z,20.03
2019-04-01T06:04:16.080Z,15.97
2019-04-01T06:06:48.790Z,15.00
2019-04-01T06:09:19.653Z,12.37
2019-04-01T06:11:52.876Z,13.93
2019-04-01T06:14:23.839Z,13.88
2019-04-01T06:16:55.442Z,15.53
2019-04-01T06:19:27.360Z,31.30
2019-04-01T06:22:00.674Z,55.12
2019-04-01T06:24:32.129Z,36.10
2019-04-01T06:27:03.035Z,46.40
2019-04-01T06:29:34.046Z,45.98
2019-04-01T06:32:04.962Z,38.45
2019-04-01T06:34:35.939Z,43.68
2019-04-01T06:37:07.141Z,32.88
2019-04-01T06:39:38.073Z,22.77
2019-04-01T06:42:09.835Z,16.17
2019-04-01T06:44:40.767Z,17.98
2019-04-01T06:47:11.675Z,16.82
2019-04-01T06:49:43.533Z,13.90
2019-04-01T06:52:14.458Z,16.10
2019-04-01T06:54:45.400Z,14.33
2019-04-01T06:57:18.855Z,16.87
2019-04-01T06:59:49.020Z,14.25
2019-04-01T07:02:20.039Z,13.65
2019-04-01T07:04:51.720Z,13.25
2019-04-01T07:07:22.649Z,14.20
2019-04-01T07:09:53.597Z,13.53
2019-04-01T07:12:24.822Z,12.18
2019-04-01T07:14:55.753Z,10.78
2019-04-01T07:17:26.664Z,9.63
2019-04-01T07:19:58.592Z,9.10
2019-04-01T07:22:31.198Z,7.90
2019-04-01T07:25:02.124Z,7.45
2019-04-01T07:27:33.267Z,6.33
2019-04-01T07:30:05.202Z,7.28
2019-04-01T07:32:36.123Z,7.17
2019-04-01T07:35:07.870Z,5.10
2019-04-01T07:37:38.774Z,6.17
2019-04-01T07:40:09.896Z,6.78
2019-04-01T07:42:40.800Z,5.33
2019-04-01T07:45:11.836Z,7.62
2019-04-01T07:47:42.725Z,3.08
2019-04-01T07:50:15.787Z,3.67
2019-04-01T07:52:46.635Z,2.95
2019-04-01T07:55:17.555Z,3.45
2019-04-01T07:57:48.448Z,2.92
2019-04-01T08:00:20.192Z,6.60
2019-04-01T08:02:51.087Z,8.03
2019-04-01T08:05:25.765Z,2.20
2019-04-01T08:07:54.791Z,12.13
2019-04-01T08:10:25.735Z,22.03
2019-04-01T08:12:56.704Z,4.62
2019-04-01T08:15:27.829Z,2.02
2019-04-01T08:17:58.903Z,4.77
2019-04-01T08:20:30.676Z,2.30
2019-04-01T08:23:02.338Z,2.20
2019-04-01T08:25:33.265Z,2.00
2019-04-01T08:28:04.353Z,1.90
2019-04-01T08:30:35.385Z,2.50
2019-04-01T08:33:06.304Z,1.93
2019-04-01T08:35:38.030Z,2.08
2019-04-01T08:38:08.928Z,2.10
2019-04-01T08:40:39.862Z,2.07
2019-04-01T08:43:10.852Z,1.80
2019-04-01T08:45:41.779Z,1.70
2019-04-01T08:48:12.678Z,1.90
2019-04-01T08:50:43.639Z,2.00
2019-04-01T08:53:14.607Z,2.40
2019-04-01T08:55:45.531Z,1.60
2019-04-01T08:58:16.434Z,1.77
2019-04-01T09:00:47.355Z,1.60
2019-04-01T09:03:18.251Z,2.00
2019-04-01T09:05:50.164Z,2.50
2019-04-01T09:08:22.998Z,1.80
2019-04-01T09:10:54.522Z,1.50
2019-04-01T09:13:26.111Z,2.00
2019-04-01T09:15:57.334Z,1.53
2019-04-01T09:18:28.263Z,1.97
2019-04-01T09:20:59.299Z,1.80
2019-04-01T09:23:31.165Z,2.70
2019-04-01T09:26:02.132Z,1.80
2019-04-01T09:28:33.017Z,2.63
2019-04-01T09:31:03.933Z,2.17
2019-04-01T09:33:34.825Z,2.93
2019-04-01T09:36:06.734Z,2.43
2019-04-01T09:38:37.617Z,1.70
2019-04-01T09:41:08.532Z,1.90
2019-04-01T09:43:39.409Z,2.13
2019-04-01T09:46:10.331Z,2.80
2019-04-01T09:48:41.225Z,1.30
2019-04-01T09:51:12.971Z,1.70
2019-04-01T09:53:43.856Z,1.23
2019-04-01T09:56:14.788Z,2.20
2019-04-01T09:58:45.673Z,2.07
2019-04-01T10:01:16.579Z,2.40
2019-04-01T10:03:47.469Z,2.00
2019-04-01T10:06:19.249Z,2.37
2019-04-01T10:08:50.138Z,2.20
2019-04-01T10:11:21.070Z,1.77
2019-04-01T10:13:51.970Z,1.73
2019-04-01T10:16:26.327Z,2.10
2019-04-01T10:18:55.461Z,1.60
2019-04-01T10:21:26.393Z,2.73
2019-04-01T10:23:59.717Z,2.53
2019-04-01T10:26:30.726Z,2.57
2019-04-01T10:29:01.637Z,2.60
2019-04-01T10:31:32.656Z,1.90
2019-04-01T10:34:03.540Z,1.50
2019-04-01T10:36:34.480Z,3.57
2019-04-01T10:39:07.575Z,1.53
2019-04-01T10:41:38.554Z,1.70
2019-04-01T10:44:09.441Z,1.50
2019-04-01T10:46:40.827Z,1.80
2019-04-01T10:49:11.990Z,2.67
2019-04-01T10:51:43.949Z,2.40
2019-04-01T10:54:14.884Z,2.40
2019-04-01T10:56:45.796Z,3.30
2019-04-01T10:59:16.716Z,1.60
2019-04-01T11:01:47.689Z,1.90
2019-04-01T11:04:21.947Z,2.70
2019-04-01T11:06:53.026Z,2.43
2019-04-01T11:09:37.728Z,1.60
2019-04-01T11:11:56.590Z,2.33
2019-04-01T11:14:27.535Z,2.60
2019-04-01T11:16:58.467Z,2.40
2019-04-01T11:19:29.344Z,2.10
2019-04-01T11:22:01.211Z,1.50
2019-04-01T11:24:32.893Z,2.73
2019-04-01T11:27:03.808Z,2.00
2019-04-01T11:29:34.692Z,3.47
2019-04-01T11:32:05.670Z,2.50
2019-04-01T11:34:36.578Z,2.30
2019-04-01T11:37:08.503Z,1.77
2019-04-01T11:39:39.466Z,1.73
2019-04-01T11:42:10.498Z,2.30
2019-04-01T11:44:41.442Z,2.10
2019-04-01T11:47:12.450Z,1.90
2019-04-01T11:49:43.301Z,2.80
2019-04-01T11:52:15.678Z,2.13
2019-04-01T11:54:46.867Z,2.60
2019-04-01T11:57:17.789Z,1.80
2019-04-01T11:59:48.682Z,1.60
2019-04-01T12:02:19.609Z,2.30
2019-04-01T12:04:50.491Z,1.43
2019-04-01T12:07:21.514Z,2.33
2019-04-01T12:09:52.561Z,1.87
2019-04-01T12:12:24.509Z,2.93
2019-04-01T12:14:55.525Z,1.73
2019-04-01T12:17:26.459Z,2.30
2019-04-01T12:19:57.413Z,2.30
2019-04-01T12:22:30.817Z,2.90
2019-04-01T12:25:02.627Z,1.70
2019-04-01T12:27:33.527Z,1.50
2019-04-01T12:30:05.718Z,1.40
2019-04-01T12:32:36.637Z,1.73
2019-04-01T12:35:07.633Z,5.43
2019-04-01T12:37:39.433Z,1.30
2019-04-01T12:40:10.629Z,1.37
2019-04-01T12:42:41.533Z,1.70
2019-04-01T12:45:12.415Z,1.40
2019-04-01T12:47:43.703Z,1.50
2019-04-01T12:50:15.274Z,1.30
2019-04-01T12:52:47.066Z,1.40
2019-04-01T12:55:18.048Z,2.13
2019-04-01T12:57:49.009Z,1.90
2019-04-01T13:00:22.198Z,1.20
2019-04-01T13:02:53.301Z,2.60
2019-04-01T13:05:24.190Z,2.87
2019-04-01T13:07:56.011Z,4.10
2019-04-01T13:10:26.897Z,2.40
2019-04-01T13:12:57.811Z,2.80
2019-04-01T13:15:28.695Z,2.60
2019-04-01T13:17:59.611Z,3.87
2019-04-01T13:20:37.615Z,1.50
2019-04-01T13:23:03.136Z,2.17
2019-04-01T13:25:35.593Z,1.70
2019-04-01T13:28:06.512Z,1.47
2019-04-01T13:30:37.393Z,1.10
2019-04-01T13:33:08.322Z,1.50
2019-04-01T13:35:39.981Z,2.27
2019-04-01T13:38:11.891Z,2.20
2019-04-01T13:40:44.264Z,2.50
2019-04-01T13:43:17.000Z,3.10
2019-04-01T13:45:48.047Z,3.77
2019-04-01T13:48:19.967Z,2.90
2019-04-01T13:50:50.862Z,1.90
2019-04-01T13:53:24.035Z,2.90
2019-04-01T13:55:54.912Z,2.70
2019-04-01T13:58:25.832Z,4.07
2019-04-01T14:00:57.472Z,3.30
2019-04-01T14:03:34.937Z,1.63
2019-04-01T14:06:05.816Z,1.97
2019-04-01T14:08:38.420Z,4.47
2019-04-01T14:11:09.305Z,4.50
2019-04-01T14:13:41.613Z,5.23
2019-04-01T14:16:35.962Z,3.63
2019-04-01T14:19:12.710Z,4.20
2019-04-01T14:22:09.043Z,4.03
2019-04-01T14:24:45.682Z,1.50
2019-04-01T14:27:19.947Z,1.80
2019-04-01T14:29:50.865Z,3.30
2019-04-01T14:32:21.967Z,1.40
2019-04-01T14:34:52.899Z,1.43
2019-04-01T14:37:26.217Z,3.07
2019-04-01T14:39:57.376Z,2.00
2019-04-01T14:42:28.283Z,1.50
2019-04-01T14:45:00.611Z,1.07
2019-04-01T14:47:32.576Z,1.37
2019-04-01T14:50:07.498Z,1.60
2019-04-01T14:52:36.245Z,3.13
2019-04-01T14:55:08.154Z,1.50
2019-04-01T14:57:39.115Z,3.17
2019-04-01T15:00:12.867Z,2.03
2019-04-01T15:02:43.763Z,3.03
2019-04-01T15:05:14.681Z,3.97
2019-04-01T15:07:46.959Z,8.50
2019-04-01T15:10:18.426Z,6.23
2019-04-01T15:13:04.057Z,18.43
2019-04-01T15:15:21.979Z,8.50
2019-04-01T15:17:52.858Z,6.17
2019-04-01T15:20:23.906Z,4.27
2019-04-01T15:22:54.907Z,6.77
2019-04-01T15:25:26.878Z,1.70
2019-04-01T15:27:58.356Z,1.80
2019-04-01T15:30:46.986Z,7.30
2019-04-01T15:33:17.892Z,9.23
2019-04-01T15:35:48.814Z,13.27
2019-04-01T15:38:19.730Z,16.67
2019-04-01T15:40:50.666Z,6.73
2019-04-01T15:43:21.564Z,10.03
2019-04-01T15:45:52.489Z,3.03
2019-04-01T15:48:23.373Z,18.00
2019-04-01T15:50:54.300Z,11.33
2019-04-01T15:53:25.199Z,4.30
2019-04-01T15:55:57.003Z,8.67
2019-04-01T15:58:27.900Z,5.53
2019-04-01T16:00:58.825Z,3.43
2019-04-01T16:03:29.780Z,2.30
2019-04-01T16:06:00.690Z,3.20
2019-04-01T16:08:31.658Z,10.97
2019-04-01T16:11:03.555Z,7.20
2019-04-01T16:13:34.474Z,13.73
2019-04-01T16:16:07.056Z,9.30
2019-04-01T16:18:38.118Z,22.83
2019-04-01T16:21:09.050Z,23.30
2019-04-01T16:23:39.948Z,20.37
2019-04-01T16:26:11.854Z,19.83
2019-04-01T16:28:42.913Z,9.67
2019-04-01T16:31:13.834Z,10.33
2019-04-01T16:33:44.752Z,18.60
2019-04-01T16:36:15.687Z,13.63
2019-04-01T16:38:46.588Z,12.70
2019-04-01T16:41:18.407Z,14.90
2019-04-01T16:43:49.312Z,10.07
2019-04-01T16:46:20.252Z,15.77
2019-04-01T16:48:51.152Z,16.93
2019-04-01T16:51:22.103Z,10.83
2019-04-01T16:53:55.936Z,9.07
2019-04-01T16:56:26.605Z,13.37
2019-04-01T16:58:57.576Z,15.33
2019-04-01T17:01:28.514Z,14.47
2019-04-01T17:03:59.416Z,10.50
2019-04-01T17:06:30.433Z,9.87
2019-04-01T17:09:01.336Z,29.47
2019-04-01T17:11:32.282Z,18.13
2019-04-01T17:14:03.188Z,18.53
2019-04-01T17:16:34.232Z,29.00
2019-04-01T17:19:05.133Z,28.47
2019-04-01T17:21:36.073Z,19.67
2019-04-01T17:24:06.976Z,23.17
2019-04-01T17:26:58.078Z,18.60
2019-04-01T17:29:31.765Z,42.13
2019-04-01T17:32:02.645Z,34.73
2019-04-01T17:34:33.543Z,71.17
2019-04-01T17:37:04.489Z,41.70
2019-04-01T17:39:35.395Z,64.57
2019-04-01T17:42:07.360Z,39.70
2019-04-01T17:44:38.264Z,33.20
2019-04-01T17:47:09.202Z,65.17
2019-04-01T17:49:40.113Z,73.37
2019-04-01T17:52:11.160Z,109.77
2019-04-01T17:54:42.079Z,78.03
2019-04-01T17:57:13.952Z,32.17
2019-04-01T17:59:44.823Z,39.37
2019-04-01T18:02:18.735Z,76.60
2019-04-01T18:04:49.666Z,109.73
2019-04-01T18:07:20.603Z,81.43
2019-04-01T18:09:51.577Z,58.10
2019-04-01T18:12:23.988Z,38.30
2019-04-01T18:14:55.264Z,69.23
2019-04-01T18:17:26.210Z,78.07
2019-04-01T18:19:57.119Z,56.70
2019-04-01T18:22:29.120Z,42.60
2019-04-01T18:25:00.406Z,49.83
2019-04-01T18:27:32.257Z,37.90
2019-04-01T18:30:06.426Z,51.07
2019-04-01T18:32:37.625Z,75.33
2019-04-01T18:35:09.033Z,95.03
2019-04-01T18:37:40.015Z,118.87
2019-04-01T18:40:11.303Z,84.90
2019-04-01T18:42:42.278Z,57.07
2019-04-01T18:45:13.306Z,58.33
2019-04-01T18:47:44.240Z,89.00
2019-04-01T18:50:15.147Z,123.10
2019-04-01T18:52:46.082Z,212.50
2019-04-01T18:55:17.012Z,172.03
2019-04-01T18:57:48.965Z,130.80
2019-04-01T19:00:20.386Z,275.17
2019-04-01T19:02:51.349Z,189.97
2019-04-01T19:05:22.423Z,135.87
2019-04-01T19:07:53.400Z,144.57
2019-04-01T19:10:24.443Z,96.23
2019-04-01T19:13:05.772Z,165.53
2019-04-01T19:15:29.835Z,119.73
2019-04-01T19:18:01.735Z,120.10
2019-04-01T19:20:32.689Z,141.63
2019-04-01T19:23:03.742Z,121.93
2019-04-01T19:25:34.712Z,62.27
2019-04-01T19:28:06.635Z,95.93
2019-04-01T19:30:38.447Z,59.57
2019-04-01T19:33:09.415Z,106.77
2019-04-01T19:35:40.352Z,130.90
2019-04-01T19:38:11.333Z,161.73
2019-04-01T19:40:42.351Z,130.67
2019-04-01T19:43:16.137Z,116.67
2019-04-01T19:45:50.539Z,93.70
2019-04-01T19:48:20.164Z,83.67
2019-04-01T19:50:51.071Z,69.93
2019-04-01T19:53:22.072Z,71.07
2019-04-01T19:55:53.067Z,63.20
2019-04-01T19:58:25.501Z,53.07
2019-04-01T20:00:57.073Z,43.50
2019-04-01T20:03:28.028Z,45.43
2019-04-01T20:05:58.923Z,50.33
2019-04-01T20:08:29.862Z,46.77
2019-04-01T20:11:00.769Z,43.87
2019-04-01T20:13:32.586Z,46.10
2019-04-01T20:16:03.487Z,47.27
2019-04-01T20:18:35.312Z,46.60
2019-04-01T20:21:07.079Z,47.53
2019-04-01T20:23:38.021Z,123.37
2019-04-01T20:26:09.004Z,141.73
2019-04-01T20:28:42.079Z,209.63
2019-04-01T20:31:14.388Z,195.03
2019-04-01T20:33:45.425Z,186.03
2019-04-01T20:36:28.008Z,153.90
2019-04-01T20:38:49.005Z,140.57
2019-04-01T20:41:20.254Z,110.77
2019-04-01T20:43:52.943Z,104.43
2019-04-01T20:46:23.846Z,97.37
2019-04-01T20:48:54.786Z,88.93
2019-04-01T20:51:26.133Z,95.93
2019-04-01T20:53:57.531Z,99.60
2019-04-01T20:56:28.513Z,98.20
2019-04-01T20:59:00.442Z,82.20
2019-04-01T21:01:31.352Z,81.13
2019-04-01T21:04:02.292Z,83.40
2019-04-01T21:06:33.208Z,76.47
2019-04-01T21:09:06.856Z,72.53
2019-04-01T21:11:37.765Z,68.17
2019-04-01T21:14:09.597Z,67.40
2019-04-01T21:16:40.550Z,82.43
2019-04-01T21:19:11.526Z,89.67
2019-04-01T21:21:42.481Z,97.07
2019-04-01T21:24:13.532Z,93.27
2019-04-01T21:26:44.537Z,84.67
2019-04-01T21:29:15.570Z,77.67
2019-04-01T21:31:48.529Z,65.60
2019-04-01T21:34:19.709Z,64.47
2019-04-01T21:36:50.637Z,58.70
2019-04-01T21:39:21.614Z,39.47
2019-04-01T21:41:53.897Z,33.87
2019-04-01T21:44:25.071Z,30.67
2019-04-01T21:46:55.983Z,31.50
2019-04-01T21:49:27.107Z,27.30
2019-04-01T21:51:58.014Z,27.23
2019-04-01T21:54:28.955Z,28.27
2019-04-01T21:56:59.849Z,29.03
2019-04-01T21:59:31.680Z,28.20
2019-04-01T22:02:03.356Z,28.40
2019-04-01T22:04:35.206Z,32.83
2019-04-01T22:07:06.208Z,39.70
2019-04-01T22:09:38.084Z,43.43
2019-04-01T22:12:08.995Z,45.53
2019-04-01T22:14:39.946Z,47.13
2019-04-01T22:17:10.860Z,53.83
2019-04-01T22:19:41.804Z,55.47
2019-04-01T22:22:12.708Z,52.60
2019-04-01T22:24:43.638Z,53.57
2019-04-01T22:27:14.551Z,61.53
2019-04-01T22:29:46.328Z,51.87
2019-04-01T22:32:17.241Z,56.93
2019-04-01T22:34:48.180Z,54.50
2019-04-01T22:37:27.052Z,55.87
2019-04-01T22:39:51.729Z,52.40
2019-04-01T22:42:22.687Z,55.67
2019-04-01T22:44:53.686Z,57.30
2019-04-01T22:47:24.639Z,55.53
2019-04-01T22:49:55.620Z,55.23
2019-04-01T22:52:26.551Z,54.50
2019-04-01T22:54:58.263Z,54.67
2019-04-01T22:57:30.148Z,54.33
2019-04-01T23:00:01.955Z,52.17
2019-04-01T23:02:32.907Z,51.30
2019-04-01T23:05:04.584Z,51.77
2019-04-01T23:07:35.508Z,54.37
2019-04-01T23:10:07.971Z,51.50
2019-04-01T23:12:38.918Z,53.10
2019-04-01T23:15:10.878Z,57.83
2019-04-01T23:17:41.830Z,66.17
2019-04-01T23:20:12.878Z,70.67
2019-04-01T23:22:43.816Z,76.83
2019-04-01T23:25:15.254Z,101.97
2019-04-01T23:27:46.172Z,101.20
2019-04-01T23:30:17.988Z,107.80
2019-04-01T23:32:48.902Z,112.73
2019-04-01T23:35:19.913Z,104.07
2019-04-01T23:37:50.820Z,84.63
2019-04-01T23:40:21.761Z,66.67
2019-04-01T23:42:52.670Z,84.73
2019-04-01T23:45:23.638Z,56.03
2019-04-01T23:47:54.558Z,55.50
2019-04-01T23:50:25.741Z,45.83
2019-04-01T23:52:56.719Z,43.23
2019-04-01T23:55:29.199Z,38.40
2019-04-01T23:58:00.755Z,37.47
